createdAt,value
2018-05-31T00:00:02.697Z,0.00
2018-05-31T00:01:02.734Z,0.00
2018-05-31T00:02:02.776Z,0.00
2018-05-31T00:03:02.821Z,0.00
2018-05-31T00:04:02.869Z,0.00
2018-05-31T00:05:02.900Z,0.00
2018-05-31T00:06:02.934Z,0.00
2018-05-31T00:07:02.975Z,0.00
2018-05-31T00:08:03.017Z,0.00
2018-05-31T00:09:03.052Z,0.00
2018-05-31T00:10:03.103Z,0.00
2018-05-31T00:11:03.131Z,0.00
2018-05-31T00:12:03.173Z,0.00
2018-05-31T00:13:03.212Z,0.00
2018-05-31T00:14:03.250Z,0.00
2018-05-31T00:15:03.292Z,0.00
2018-05-31T00:16:03.331Z,0.00
2018-05-31T00:17:03.386Z,0.00
2018-05-31T00:18:03.411Z,0.00
2018-05-31T00:19:03.456Z,0.00
2018-05-31T00:20:03.490Z,0.00
2018-05-31T00:21:03.529Z,0.00
2018-05-31T00:22:03.568Z,0.00
2018-05-31T00:23:03.605Z,0.00
2018-05-31T00:24:03.651Z,0.00
2018-05-31T00:25:03.721Z,0.00
2018-05-31T00:26:03.727Z,0.00
2018-05-31T00:27:03.767Z,0.00
2018-05-31T00:28:03.811Z,0.00
2018-05-31T00:29:03.845Z,0.00
2018-05-31T00:30:03.885Z,0.00
2018-05-31T00:31:03.925Z,0.00
2018-05-31T00:32:03.970Z,0.00
2018-05-31T00:33:04.005Z,0.00
2018-05-31T00:34:04.052Z,0.00
2018-05-31T00:35:04.185Z,0.00
2018-05-31T00:36:04.127Z,0.00
2018-05-31T00:37:04.160Z,0.00
2018-05-31T00:38:04.201Z,0.00
2018-05-31T00:39:04.240Z,0.00
2018-05-31T00:40:04.281Z,0.00
2018-05-31T00:41:04.320Z,0.00
2018-05-31T00:42:04.359Z,0.00
2018-05-31T00:43:04.406Z,0.00
2018-05-31T00:44:04.440Z,0.00
2018-05-31T00:45:04.477Z,0.00
2018-05-31T00:46:04.515Z,0.00
2018-05-31T00:47:04.555Z,0.00
2018-05-31T00:48:04.595Z,0.00
2018-05-31T00:49:04.652Z,0.00
2018-05-31T00:50:04.672Z,0.00
2018-05-31T00:51:04.715Z,0.00
2018-05-31T00:52:04.769Z,0.00
2018-05-31T00:53:04.799Z,0.00
2018-05-31T00:54:04.831Z,0.00
2018-05-31T00:55:04.871Z,0.00
2018-05-31T00:56:04.912Z,0.00
2018-05-31T00:57:04.951Z,0.00
2018-05-31T00:58:04.990Z,0.00
2018-05-31T00:59:05.032Z,0.00
2018-05-31T01:00:05.069Z,0.00
2018-05-31T01:01:05.117Z,0.00
2018-05-31T01:02:05.148Z,0.00
2018-05-31T01:03:05.187Z,0.00
2018-05-31T01:04:05.226Z,0.00
2018-05-31T01:05:05.268Z,0.00
2018-05-31T01:06:05.310Z,0.00
2018-05-31T01:07:05.347Z,0.00
2018-05-31T01:08:05.386Z,0.00
2018-05-31T01:09:05.424Z,0.00
2018-05-31T01:10:05.475Z,0.00
2018-05-31T01:11:05.504Z,0.00
2018-05-31T01:12:05.546Z,0.00
2018-05-31T01:13:05.584Z,0.00
2018-05-31T01:14:05.627Z,0.00
2018-05-31T01:15:05.661Z,0.00
2018-05-31T01:16:05.702Z,0.00
2018-05-31T01:17:05.740Z,0.00
2018-05-31T01:18:05.780Z,0.00
2018-05-31T01:19:05.819Z,0.00
2018-05-31T01:20:05.861Z,0.00
2018-05-31T01:21:05.898Z,0.00
2018-05-31T01:22:05.938Z,0.00
2018-05-31T01:23:05.976Z,0.00
2018-05-31T01:24:06.016Z,0.00
2018-05-31T01:25:06.057Z,0.00
2018-05-31T01:26:06.096Z,0.00
2018-05-31T01:27:06.134Z,0.00
2018-05-31T01:28:06.174Z,0.00
2018-05-31T01:29:06.212Z,0.00
2018-05-31T01:30:06.259Z,0.00
2018-05-31T01:31:06.291Z,0.00
2018-05-31T01:32:06.367Z,0.00
2018-05-31T01:33:06.369Z,0.00
2018-05-31T01:34:06.409Z,0.00
2018-05-31T01:35:06.453Z,0.00
2018-05-31T01:36:06.495Z,0.00
2018-05-31T01:37:06.529Z,0.00
2018-05-31T01:38:06.575Z,0.00
2018-05-31T01:39:06.608Z,0.00
2018-05-31T01:40:06.648Z,0.00
2018-05-31T01:41:06.685Z,0.00
2018-05-31T01:42:06.725Z,0.00
2018-05-31T01:43:06.764Z,0.00
2018-05-31T01:44:06.804Z,0.00
2018-05-31T01:45:06.844Z,0.00
2018-05-31T01:46:06.882Z,0.00
2018-05-31T01:47:06.921Z,0.00
2018-05-31T01:48:06.960Z,0.00
2018-05-31T01:49:06.999Z,0.00
2018-05-31T01:50:07.038Z,0.00
2018-05-31T01:51:07.079Z,0.00
2018-05-31T01:52:07.118Z,0.00
2018-05-31T01:53:07.157Z,0.00
2018-05-31T01:54:07.195Z,0.00
2018-05-31T01:55:07.235Z,0.00
2018-05-31T01:56:07.277Z,0.00
2018-05-31T01:57:07.320Z,0.00
2018-05-31T01:58:07.353Z,0.00
2018-05-31T01:59:07.391Z,0.00
2018-05-31T02:00:07.431Z,0.00
2018-05-31T02:01:07.474Z,0.00
2018-05-31T02:02:07.512Z,0.00
2018-05-31T02:03:07.550Z,0.00
2018-05-31T02:04:07.588Z,0.00
2018-05-31T02:05:07.672Z,0.00
2018-05-31T02:06:07.666Z,0.00
2018-05-31T02:07:07.706Z,0.00
2018-05-31T02:08:07.745Z,0.00
2018-05-31T02:09:07.783Z,0.00
2018-05-31T02:10:07.825Z,0.00
2018-05-31T02:11:07.862Z,0.00
2018-05-31T02:12:07.904Z,0.00
2018-05-31T02:13:07.939Z,0.00
2018-05-31T02:14:07.978Z,0.00
2018-05-31T02:15:08.019Z,0.00
2018-05-31T02:16:08.059Z,0.00
2018-05-31T02:17:08.097Z,0.00
2018-05-31T02:18:08.140Z,0.00
2018-05-31T02:19:08.180Z,0.00
2018-05-31T02:20:08.215Z,0.00
2018-05-31T02:21:08.253Z,0.00
2018-05-31T02:22:08.293Z,0.00
2018-05-31T02:23:08.332Z,0.00
2018-05-31T02:24:08.381Z,0.00
2018-05-31T02:25:08.409Z,0.00
2018-05-31T02:26:08.449Z,0.00
2018-05-31T02:27:08.489Z,4.00
2018-05-31T02:28:08.527Z,4.00
2018-05-31T02:29:08.566Z,4.00
2018-05-31T02:30:08.605Z,0.00
2018-05-31T02:31:08.644Z,4.00
2018-05-31T02:32:08.684Z,4.00
2018-05-31T02:33:08.723Z,4.00
2018-05-31T02:34:08.761Z,4.00
2018-05-31T02:35:08.805Z,4.00
2018-05-31T02:36:08.840Z,8.00
2018-05-31T02:37:08.877Z,4.00
2018-05-31T02:38:08.926Z,8.00
2018-05-31T02:39:08.958Z,8.00
2018-05-31T02:40:09.027Z,8.00
2018-05-31T02:41:09.036Z,12.00
2018-05-31T02:42:09.075Z,12.00
2018-05-31T02:43:09.114Z,12.00
2018-05-31T02:44:09.154Z,16.00
2018-05-31T02:45:09.201Z,12.00
2018-05-31T02:46:09.231Z,16.00
2018-05-31T02:47:09.269Z,16.00
2018-05-31T02:48:09.315Z,24.00
2018-05-31T02:49:09.345Z,24.00
2018-05-31T02:50:09.391Z,28.00
2018-05-31T02:51:09.423Z,32.00
2018-05-31T02:52:09.464Z,36.00
2018-05-31T02:53:09.501Z,40.00
2018-05-31T02:54:09.541Z,48.00
2018-05-31T02:55:09.578Z,52.00
2018-05-31T02:56:09.619Z,56.00
2018-05-31T02:57:09.657Z,64.00
2018-05-31T02:58:09.697Z,72.00
2018-05-31T02:59:09.735Z,80.00
2018-05-31T03:00:09.773Z,88.00
2018-05-31T03:01:09.812Z,100.00
2018-05-31T03:02:09.850Z,112.00
2018-05-31T03:03:09.891Z,120.00
2018-05-31T03:04:09.929Z,132.00
2018-05-31T03:05:09.968Z,144.00
2018-05-31T03:06:10.007Z,160.00
2018-05-31T03:07:10.047Z,168.00
2018-05-31T03:08:10.088Z,184.00
2018-05-31T03:09:10.123Z,200.00
2018-05-31T03:10:10.165Z,220.00
2018-05-31T03:11:10.203Z,240.00
2018-05-31T03:12:10.242Z,260.00
2018-05-31T03:13:10.280Z,280.00
2018-05-31T03:14:10.318Z,300.00
2018-05-31T03:15:10.360Z,328.00
2018-05-31T03:16:10.395Z,352.00
2018-05-31T03:17:10.438Z,372.00
2018-05-31T03:18:10.473Z,400.00
2018-05-31T03:19:10.511Z,432.00
2018-05-31T03:20:10.551Z,460.00
2018-05-31T03:21:10.588Z,496.00
2018-05-31T03:22:10.627Z,528.00
2018-05-31T03:23:10.670Z,560.00
2018-05-31T03:24:10.706Z,596.00
2018-05-31T03:25:10.744Z,640.00
2018-05-31T03:26:10.782Z,672.00
2018-05-31T03:27:10.822Z,712.00
2018-05-31T03:28:10.864Z,752.00
2018-05-31T03:29:10.898Z,792.00
2018-05-31T03:30:10.939Z,832.00
2018-05-31T03:31:10.980Z,868.00
2018-05-31T03:32:11.019Z,904.00
2018-05-31T03:33:11.055Z,936.00
2018-05-31T03:34:11.111Z,968.00
2018-05-31T03:35:11.133Z,988.00
2018-05-31T03:36:11.171Z,1008.00
2018-05-31T03:37:11.210Z,1024.00
2018-05-31T03:38:11.248Z,1020.00
2018-05-31T03:39:11.288Z,1024.00
2018-05-31T03:40:11.328Z,1048.00
2018-05-31T03:41:11.364Z,1096.00
2018-05-31T03:42:11.403Z,1148.00
2018-05-31T03:43:11.442Z,1200.00
2018-05-31T03:44:11.483Z,1252.00
2018-05-31T03:45:11.528Z,1328.00
2018-05-31T03:46:11.558Z,1424.00
2018-05-31T03:47:11.596Z,1540.00
2018-05-31T03:48:11.638Z,1688.00
2018-05-31T03:49:11.679Z,1852.00
2018-05-31T03:50:11.713Z,2036.00
2018-05-31T03:51:11.750Z,2260.00
2018-05-31T03:52:11.791Z,2444.00
2018-05-31T03:53:11.828Z,2556.00
2018-05-31T03:54:11.866Z,2640.00
2018-05-31T03:55:11.907Z,2732.00
2018-05-31T03:56:11.943Z,2832.00
2018-05-31T03:57:11.982Z,2948.00
2018-05-31T03:58:12.024Z,3064.00
2018-05-31T03:59:12.061Z,3136.00
2018-05-31T04:00:12.101Z,3148.00
2018-05-31T04:01:12.136Z,3316.00
2018-05-31T04:02:12.179Z,3636.00
2018-05-31T04:03:12.215Z,3824.00
2018-05-31T04:04:12.255Z,3880.00
2018-05-31T04:05:12.292Z,4012.00
2018-05-31T04:06:12.332Z,4212.00
2018-05-31T04:07:12.369Z,4268.00
2018-05-31T04:08:12.410Z,4296.00
2018-05-31T04:09:12.447Z,4404.00
2018-05-31T04:10:12.486Z,4488.00
2018-05-31T04:11:12.527Z,4704.00
2018-05-31T04:12:12.565Z,4892.00
2018-05-31T04:13:12.604Z,5132.00
2018-05-31T04:14:12.651Z,5308.00
2018-05-31T04:15:12.680Z,5364.00
2018-05-31T04:16:12.721Z,5432.00
2018-05-31T04:17:12.759Z,5556.00
2018-05-31T04:18:12.797Z,5728.00
2018-05-31T04:19:12.837Z,5876.00
2018-05-31T04:20:12.875Z,6016.00
2018-05-31T04:21:12.913Z,6156.00
2018-05-31T04:22:12.957Z,6308.00
2018-05-31T04:23:12.993Z,6484.00
2018-05-31T04:24:13.033Z,6704.00
2018-05-31T04:25:13.072Z,6936.00
2018-05-31T04:26:13.122Z,7076.00
2018-05-31T04:27:13.151Z,7024.00
2018-05-31T04:28:13.189Z,6928.00
2018-05-31T04:29:13.226Z,7036.00
2018-05-31T04:30:13.269Z,7292.00
2018-05-31T04:31:13.305Z,7432.00
2018-05-31T04:32:13.345Z,7728.00
2018-05-31T04:33:13.384Z,8248.00
2018-05-31T04:34:13.423Z,8660.00
2018-05-31T04:35:13.463Z,8788.00
2018-05-31T04:36:13.504Z,8912.00
2018-05-31T04:37:13.542Z,9056.00
2018-05-31T04:38:13.582Z,9192.00
2018-05-31T04:39:13.624Z,9400.00
2018-05-31T04:40:13.662Z,9532.00
2018-05-31T04:41:13.702Z,8916.00
2018-05-31T04:42:13.744Z,8572.00
2018-05-31T04:43:13.782Z,9452.00
2018-05-31T04:44:13.821Z,9484.00
2018-05-31T04:45:13.868Z,9464.00
2018-05-31T04:46:13.911Z,8980.00
2018-05-31T04:47:13.942Z,9124.00
2018-05-31T04:48:13.981Z,9108.00
2018-05-31T04:49:14.021Z,8804.00
2018-05-31T04:50:14.062Z,7748.00
2018-05-31T04:51:14.102Z,7208.00
2018-05-31T04:52:14.141Z,6488.00
2018-05-31T04:53:14.184Z,5716.00
2018-05-31T04:54:14.220Z,5528.00
2018-05-31T04:55:14.264Z,5512.00
2018-05-31T04:56:14.303Z,5600.00
2018-05-31T04:57:14.341Z,5964.00
2018-05-31T04:58:14.382Z,6712.00
2018-05-31T04:59:14.430Z,7784.00
2018-05-31T05:00:14.467Z,7988.00
2018-05-31T05:01:14.501Z,8140.00
2018-05-31T05:02:14.548Z,8284.00
2018-05-31T05:03:14.583Z,8336.00
2018-05-31T05:04:14.623Z,8428.00
2018-05-31T05:05:14.664Z,8512.00
2018-05-31T05:06:14.705Z,8400.00
2018-05-31T05:07:14.745Z,8560.00
2018-05-31T05:08:14.787Z,8588.00
2018-05-31T05:09:14.826Z,8644.00
2018-05-31T05:10:14.866Z,8620.00
2018-05-31T05:11:14.905Z,8584.00
2018-05-31T05:12:14.946Z,8512.00
2018-05-31T05:13:14.991Z,8460.00
2018-05-31T05:14:15.026Z,8408.00
2018-05-31T05:15:15.068Z,8408.00
2018-05-31T05:16:15.109Z,8480.00
2018-05-31T05:17:15.160Z,8604.00
2018-05-31T05:18:15.189Z,8668.00
2018-05-31T05:19:15.231Z,8556.00
2018-05-31T05:20:15.278Z,8324.00
2018-05-31T05:21:15.316Z,8184.00
2018-05-31T05:22:15.352Z,8232.00
2018-05-31T05:23:15.395Z,8256.00
2018-05-31T05:24:15.432Z,8264.00
2018-05-31T05:25:15.476Z,8256.00
2018-05-31T05:26:15.520Z,8252.00
2018-05-31T05:27:15.559Z,8244.00
2018-05-31T05:28:15.596Z,8232.00
2018-05-31T05:29:15.635Z,8248.00
2018-05-31T05:30:15.678Z,8292.00
2018-05-31T05:31:15.769Z,8280.00
2018-05-31T05:32:15.757Z,8188.00
2018-05-31T05:33:15.815Z,8252.00
2018-05-31T05:34:15.839Z,8208.00
2018-05-31T05:35:15.880Z,8308.00
2018-05-31T05:36:15.923Z,8328.00
2018-05-31T05:37:15.962Z,8336.00
2018-05-31T05:38:16.016Z,8344.00
2018-05-31T05:39:16.044Z,8336.00
2018-05-31T05:40:16.085Z,8336.00
2018-05-31T05:41:16.123Z,8344.00
2018-05-31T05:42:16.167Z,8372.00
2018-05-31T05:43:16.210Z,8348.00
2018-05-31T05:44:16.248Z,8312.00
2018-05-31T05:45:16.290Z,8268.00
2018-05-31T05:46:16.331Z,8184.00
2018-05-31T05:47:16.377Z,8176.00
2018-05-31T05:48:16.423Z,8200.00
2018-05-31T05:49:16.453Z,8212.00
2018-05-31T05:50:16.494Z,8224.00
2018-05-31T05:51:16.534Z,8268.00
2018-05-31T05:52:16.579Z,8300.00
2018-05-31T05:53:16.620Z,8284.00
2018-05-31T05:54:16.656Z,8268.00
2018-05-31T05:55:16.703Z,8244.00
2018-05-31T05:56:16.739Z,8228.00
2018-05-31T05:57:16.780Z,8224.00
2018-05-31T05:58:16.827Z,8244.00
2018-05-31T05:59:16.864Z,8236.00
2018-05-31T06:00:16.905Z,8200.00
2018-05-31T06:01:16.948Z,8096.00
2018-05-31T06:02:16.991Z,8020.00
2018-05-31T06:03:17.035Z,8052.00
2018-05-31T06:04:17.087Z,8100.00
2018-05-31T06:05:17.109Z,8128.00
2018-05-31T06:06:17.153Z,8144.00
2018-05-31T06:07:17.193Z,8096.00
2018-05-31T06:08:17.233Z,7972.00
2018-05-31T06:09:17.273Z,7960.00
2018-05-31T06:10:17.361Z,8096.00
2018-05-31T06:11:17.359Z,8180.00
2018-05-31T06:12:17.401Z,8228.00
2018-05-31T06:13:17.440Z,8256.00
2018-05-31T06:14:17.481Z,8244.00
2018-05-31T06:15:17.521Z,8220.00
2018-05-31T06:16:17.564Z,8196.00
2018-05-31T06:17:17.607Z,8192.00
2018-05-31T06:18:17.645Z,8224.00
2018-05-31T06:19:17.687Z,8240.00
2018-05-31T06:20:17.727Z,8252.00
2018-05-31T06:21:17.769Z,8288.00
2018-05-31T06:22:17.818Z,8304.00
2018-05-31T06:23:17.851Z,8284.00
2018-05-31T06:24:17.895Z,8324.00
2018-05-31T06:25:17.935Z,8304.00
2018-05-31T06:26:17.994Z,8332.00
2018-05-31T06:27:18.019Z,8324.00
2018-05-31T06:28:18.060Z,8332.00
2018-05-31T06:29:18.102Z,8348.00
2018-05-31T06:30:18.142Z,8364.00
2018-05-31T06:31:18.186Z,8364.00
2018-05-31T06:32:18.227Z,8352.00
2018-05-31T06:33:18.266Z,8348.00
2018-05-31T06:34:18.311Z,8336.00
2018-05-31T06:35:18.355Z,8340.00
2018-05-31T06:36:18.394Z,8344.00
2018-05-31T06:37:18.489Z,8344.00
2018-05-31T06:38:18.487Z,8328.00
2018-05-31T06:39:18.520Z,8328.00
2018-05-31T06:40:18.563Z,8304.00
2018-05-31T06:41:18.603Z,8292.00
2018-05-31T06:42:18.647Z,8336.00
2018-05-31T06:43:18.688Z,8440.00
2018-05-31T06:44:18.731Z,8628.00
2018-05-31T06:45:18.771Z,8860.00
2018-05-31T06:46:18.814Z,9068.00
2018-05-31T06:47:18.859Z,9360.00
2018-05-31T06:48:18.898Z,9572.00
2018-05-31T06:49:18.938Z,9736.00
2018-05-31T06:50:18.983Z,9892.00
2018-05-31T06:51:19.025Z,10096.00
2018-05-31T06:52:19.066Z,10332.00
2018-05-31T06:53:19.108Z,10508.00
2018-05-31T06:54:19.164Z,10568.00
2018-05-31T06:55:19.197Z,10556.00
2018-05-31T06:56:19.234Z,10484.00
2018-05-31T06:57:19.283Z,10272.00
2018-05-31T06:58:19.320Z,9880.00
2018-05-31T06:59:19.364Z,9404.00
2018-05-31T07:00:19.405Z,8952.00
2018-05-31T07:01:19.450Z,8608.00
2018-05-31T07:02:19.491Z,8412.00
2018-05-31T07:03:19.534Z,8252.00
2018-05-31T07:04:19.577Z,8168.00
2018-05-31T07:05:19.633Z,8100.00
2018-05-31T07:06:19.675Z,8096.00
2018-05-31T07:07:19.712Z,8112.00
2018-05-31T07:08:19.759Z,8116.00
2018-05-31T07:09:19.790Z,8104.00
2018-05-31T07:10:19.835Z,7568.00
2018-05-31T07:11:19.876Z,6952.00
2018-05-31T07:12:20.073Z,7108.00
2018-05-31T07:13:19.962Z,7540.00
2018-05-31T07:14:20.006Z,7892.00
2018-05-31T07:15:20.049Z,8056.00
2018-05-31T07:16:20.092Z,7824.00
2018-05-31T07:17:20.141Z,7148.00
2018-05-31T07:18:20.184Z,7088.00
2018-05-31T07:19:20.221Z,7264.00
2018-05-31T07:20:20.262Z,6828.00
2018-05-31T07:21:20.316Z,6672.00
2018-05-31T07:22:20.348Z,6484.00
2018-05-31T07:23:20.391Z,6368.00
2018-05-31T07:24:20.443Z,6316.00
2018-05-31T07:25:20.488Z,6564.00
2018-05-31T07:26:20.519Z,7048.00
2018-05-31T07:27:20.563Z,7088.00
2018-05-31T07:28:20.615Z,7192.00
2018-05-31T07:29:20.650Z,7532.00
2018-05-31T07:30:20.695Z,7952.00
2018-05-31T07:31:20.740Z,8292.00
2018-05-31T07:32:20.780Z,8944.00
2018-05-31T07:33:20.838Z,9084.00
2018-05-31T07:34:20.872Z,9104.00
2018-05-31T07:35:20.908Z,9452.00
2018-05-31T07:36:20.990Z,9576.00
2018-05-31T07:37:21.001Z,9836.00
2018-05-31T07:38:21.044Z,9780.00
2018-05-31T07:39:21.081Z,9392.00
2018-05-31T07:40:21.125Z,9416.00
2018-05-31T07:41:21.166Z,9400.00
2018-05-31T07:42:21.319Z,9368.00
2018-05-31T07:43:21.255Z,9336.00
2018-05-31T07:44:21.315Z,9276.00
2018-05-31T07:45:21.354Z,9176.00
2018-05-31T07:46:21.384Z,9164.00
2018-05-31T07:47:21.428Z,9232.00
2018-05-31T07:48:21.472Z,9316.00
2018-05-31T07:49:21.513Z,9384.00
2018-05-31T07:50:21.558Z,9472.00
2018-05-31T07:51:21.633Z,9492.00
2018-05-31T07:52:21.649Z,9444.00
2018-05-31T07:53:21.692Z,9396.00
2018-05-31T07:54:21.732Z,9364.00
2018-05-31T07:55:21.777Z,9360.00
2018-05-31T07:56:21.827Z,9348.00
2018-05-31T07:57:21.864Z,9312.00
2018-05-31T07:58:21.997Z,9268.00
2018-05-31T07:59:21.976Z,9232.00
2018-05-31T08:00:21.998Z,9192.00
2018-05-31T08:01:22.041Z,9160.00
2018-05-31T08:02:22.093Z,9128.00
2018-05-31T08:03:22.126Z,9116.00
2018-05-31T08:04:22.196Z,9088.00
2018-05-31T08:05:22.213Z,9032.00
2018-05-31T08:06:22.273Z,8980.00
2018-05-31T08:07:22.305Z,8924.00
2018-05-31T08:08:22.346Z,8884.00
2018-05-31T08:09:22.390Z,8864.00
2018-05-31T08:10:22.433Z,8844.00
2018-05-31T08:11:22.515Z,8828.00
2018-05-31T08:12:22.541Z,8864.00
2018-05-31T08:13:22.573Z,8916.00
2018-05-31T08:14:22.612Z,8984.00
2018-05-31T08:15:22.655Z,9072.00
2018-05-31T08:16:22.705Z,9172.00
2018-05-31T08:17:22.782Z,9276.00
2018-05-31T08:18:22.785Z,9424.00
2018-05-31T08:19:22.831Z,9672.00
2018-05-31T08:20:22.875Z,10028.00
2018-05-31T08:21:22.928Z,10348.00
2018-05-31T08:22:22.966Z,10584.00
2018-05-31T08:23:23.009Z,10668.00
2018-05-31T08:24:23.052Z,10660.00
2018-05-31T08:25:23.094Z,10616.00
2018-05-31T08:26:23.141Z,10520.00
2018-05-31T08:27:23.184Z,10368.00
2018-05-31T08:28:23.230Z,10052.00
2018-05-31T08:29:23.278Z,9712.00
2018-05-31T08:30:23.320Z,9548.00
2018-05-31T08:31:23.427Z,9488.00
2018-05-31T08:32:23.411Z,9340.00
2018-05-31T08:33:23.455Z,9152.00
2018-05-31T08:34:23.500Z,9020.00
2018-05-31T08:35:23.561Z,8876.00
2018-05-31T08:36:23.589Z,8736.00
2018-05-31T08:37:23.633Z,8588.00
2018-05-31T08:38:23.679Z,8468.00
2018-05-31T08:39:23.722Z,8368.00
2018-05-31T08:40:23.779Z,8304.00
2018-05-31T08:41:23.813Z,8236.00
2018-05-31T08:42:23.867Z,8196.00
2018-05-31T08:43:23.903Z,8080.00
2018-05-31T08:44:23.948Z,7908.00
2018-05-31T08:45:23.993Z,7764.00
2018-05-31T08:46:24.038Z,7652.00
2018-05-31T08:47:24.081Z,7580.00
2018-05-31T08:48:24.128Z,7480.00
2018-05-31T08:49:24.171Z,7404.00
2018-05-31T08:50:24.218Z,7364.00
2018-05-31T08:51:24.265Z,7292.00
2018-05-31T08:52:24.313Z,7256.00
2018-05-31T08:53:24.363Z,7200.00
2018-05-31T08:54:24.396Z,7136.00
2018-05-31T08:55:24.441Z,7056.00
2018-05-31T08:56:24.487Z,6992.00
2018-05-31T08:57:24.546Z,6956.00
2018-05-31T08:58:24.587Z,6944.00
2018-05-31T08:59:24.626Z,6928.00
2018-05-31T09:00:24.671Z,6900.00
2018-05-31T09:01:24.717Z,6868.00
2018-05-31T09:02:24.766Z,6864.00
2018-05-31T09:03:24.802Z,6880.00
2018-05-31T09:04:24.859Z,6884.00
2018-05-31T09:05:24.894Z,6940.00
2018-05-31T09:06:24.937Z,7124.00
2018-05-31T09:07:24.983Z,7188.00
2018-05-31T09:08:25.029Z,7184.00
2018-05-31T09:09:25.153Z,7176.00
2018-05-31T09:10:25.120Z,7144.00
2018-05-31T09:11:25.164Z,7276.00
2018-05-31T09:12:25.211Z,7372.00
2018-05-31T09:13:25.254Z,7384.00
2018-05-31T09:14:25.299Z,7704.00
2018-05-31T09:15:25.349Z,7616.00
2018-05-31T09:16:25.388Z,7924.00
2018-05-31T09:17:25.433Z,8264.00
2018-05-31T09:18:25.483Z,8132.00
2018-05-31T09:19:25.525Z,8324.00
2018-05-31T09:20:25.573Z,8512.00
2018-05-31T09:21:25.615Z,8736.00
2018-05-31T09:22:25.659Z,8760.00
2018-05-31T09:23:25.714Z,8744.00
2018-05-31T09:24:25.754Z,8096.00
2018-05-31T09:25:25.802Z,7696.00
2018-05-31T09:26:25.840Z,7700.00
2018-05-31T09:27:25.890Z,8484.00
2018-05-31T09:28:25.933Z,9172.00
2018-05-31T09:29:25.981Z,9748.00
2018-05-31T09:30:26.022Z,9924.00
2018-05-31T09:31:26.068Z,9524.00
2018-05-31T09:32:26.114Z,9000.00
2018-05-31T09:33:26.160Z,8608.00
2018-05-31T09:34:26.214Z,8232.00
2018-05-31T09:35:26.252Z,8116.00
2018-05-31T09:36:26.296Z,7912.00
2018-05-31T09:37:26.355Z,7720.00
2018-05-31T09:38:26.387Z,7624.00
2018-05-31T09:39:26.435Z,7484.00
2018-05-31T09:40:26.478Z,7352.00
2018-05-31T09:41:26.522Z,7220.00
2018-05-31T09:42:26.577Z,7096.00
2018-05-31T09:43:26.623Z,7068.00
2018-05-31T09:44:26.667Z,7044.00
2018-05-31T09:45:26.759Z,7056.00
2018-05-31T09:46:26.751Z,7208.00
2018-05-31T09:47:26.803Z,7404.00
2018-05-31T09:48:26.866Z,7488.00
2018-05-31T09:49:26.890Z,7472.00
2018-05-31T09:50:26.939Z,7156.00
2018-05-31T09:51:26.987Z,6920.00
2018-05-31T09:52:27.148Z,6708.00
2018-05-31T09:53:27.077Z,6668.00
2018-05-31T09:54:27.119Z,6688.00
2018-05-31T09:55:27.173Z,6732.00
2018-05-31T09:56:27.221Z,6808.00
2018-05-31T09:57:27.260Z,6876.00
2018-05-31T09:58:27.301Z,6892.00
2018-05-31T09:59:27.351Z,6860.00
2018-05-31T10:00:27.392Z,6864.00
2018-05-31T10:01:27.448Z,6872.00
2018-05-31T10:02:27.489Z,6820.00
2018-05-31T10:03:27.531Z,6788.00
2018-05-31T10:04:27.578Z,6784.00
2018-05-31T10:05:27.635Z,6820.00
2018-05-31T10:06:27.768Z,6872.00
2018-05-31T10:07:27.729Z,6980.00
2018-05-31T10:08:27.763Z,7008.00
2018-05-31T10:09:27.806Z,7000.00
2018-05-31T10:10:27.862Z,6952.00
2018-05-31T10:11:27.895Z,6872.00
2018-05-31T10:12:27.940Z,6812.00
2018-05-31T10:13:27.984Z,6796.00
2018-05-31T10:14:28.033Z,6808.00
2018-05-31T10:15:28.093Z,6808.00
2018-05-31T10:16:28.125Z,6820.00
2018-05-31T10:17:28.171Z,6868.00
2018-05-31T10:18:28.275Z,6936.00
2018-05-31T10:19:28.300Z,7024.00
2018-05-31T10:20:28.429Z,7072.00
2018-05-31T10:21:28.360Z,7096.00
2018-05-31T10:22:28.404Z,7144.00
2018-05-31T10:23:28.490Z,7196.00
2018-05-31T10:24:28.493Z,7196.00
2018-05-31T10:25:28.534Z,7204.00
2018-05-31T10:26:28.615Z,7288.00
2018-05-31T10:27:28.631Z,7404.00
2018-05-31T10:28:28.672Z,7416.00
2018-05-31T10:29:28.722Z,7508.00
2018-05-31T10:30:28.778Z,7708.00
2018-05-31T10:31:28.948Z,7944.00
2018-05-31T10:32:28.867Z,8208.00
2018-05-31T10:33:29.085Z,8328.00
2018-05-31T10:34:28.961Z,8436.00
2018-05-31T10:35:29.006Z,8692.00
2018-05-31T10:36:29.047Z,8912.00
2018-05-31T10:37:29.086Z,8668.00
2018-05-31T10:38:29.136Z,9012.00
2018-05-31T10:39:29.222Z,8704.00
2018-05-31T10:40:29.321Z,8280.00
2018-05-31T10:41:29.298Z,7952.00
2018-05-31T10:42:29.313Z,7576.00
2018-05-31T10:43:29.374Z,7652.00
2018-05-31T10:44:29.412Z,7660.00
2018-05-31T10:45:29.454Z,7760.00
2018-05-31T10:46:29.517Z,8020.00
2018-05-31T10:47:29.552Z,8364.00
2018-05-31T10:48:29.590Z,8100.00
2018-05-31T10:49:29.636Z,7836.00
2018-05-31T10:50:29.684Z,7648.00
2018-05-31T10:51:29.729Z,7504.00
2018-05-31T10:52:29.811Z,7468.00
2018-05-31T10:53:29.820Z,7464.00
2018-05-31T10:54:29.868Z,7512.00
2018-05-31T10:55:29.930Z,7604.00
2018-05-31T10:56:29.983Z,7780.00
2018-05-31T10:57:30.005Z,7872.00
2018-05-31T10:58:30.057Z,7672.00
2018-05-31T10:59:30.109Z,6928.00
2018-05-31T11:00:30.147Z,6600.00
2018-05-31T11:01:30.199Z,6376.00
2018-05-31T11:02:30.239Z,6200.00
2018-05-31T11:03:30.285Z,6244.00
2018-05-31T11:04:30.340Z,6380.00
2018-05-31T11:05:30.379Z,6236.00
2018-05-31T11:06:30.424Z,6204.00
2018-05-31T11:07:30.471Z,6196.00
2018-05-31T11:08:30.518Z,6680.00
2018-05-31T11:09:30.565Z,7024.00
2018-05-31T11:10:30.611Z,7676.00
2018-05-31T11:11:30.657Z,8172.00
2018-05-31T11:12:30.704Z,8620.00
2018-05-31T11:13:30.762Z,9320.00
2018-05-31T11:14:30.807Z,9712.00
2018-05-31T11:15:30.846Z,9868.00
2018-05-31T11:16:30.911Z,9400.00
2018-05-31T11:17:30.931Z,9312.00
2018-05-31T11:18:30.979Z,9460.00
2018-05-31T11:19:31.028Z,9464.00
2018-05-31T11:20:31.110Z,8948.00
2018-05-31T11:21:31.144Z,8236.00
2018-05-31T11:22:31.165Z,7840.00
2018-05-31T11:23:31.211Z,7460.00
2018-05-31T11:24:31.264Z,7548.00
2018-05-31T11:25:31.328Z,7780.00
2018-05-31T11:26:31.354Z,7968.00
2018-05-31T11:27:31.406Z,8452.00
2018-05-31T11:28:31.452Z,9036.00
2018-05-31T11:29:31.500Z,8748.00
2018-05-31T11:30:31.537Z,8416.00
2018-05-31T11:31:31.581Z,8168.00
2018-05-31T11:32:31.635Z,8280.00
2018-05-31T11:33:31.679Z,8556.00
2018-05-31T11:34:31.769Z,8636.00
2018-05-31T11:35:31.820Z,8756.00
2018-05-31T11:36:31.830Z,8680.00
2018-05-31T11:37:31.876Z,8616.00
2018-05-31T11:38:31.921Z,8956.00
2018-05-31T11:39:31.958Z,9188.00
2018-05-31T11:40:32.007Z,9552.00
2018-05-31T11:41:32.095Z,10220.00
2018-05-31T11:42:32.097Z,10352.00
2018-05-31T11:43:32.192Z,10388.00
2018-05-31T11:44:32.192Z,10640.00
2018-05-31T11:45:32.238Z,11416.00
2018-05-31T11:46:32.292Z,12960.00
2018-05-31T11:47:32.332Z,13200.00
2018-05-31T11:48:32.379Z,12752.00
2018-05-31T11:49:32.489Z,12212.00
2018-05-31T11:50:32.472Z,11388.00
2018-05-31T11:51:32.521Z,10984.00
2018-05-31T11:52:32.567Z,10488.00
2018-05-31T11:53:32.611Z,10076.00
2018-05-31T11:54:32.844Z,9844.00
2018-05-31T11:55:32.714Z,9540.00
2018-05-31T11:56:32.758Z,9452.00
2018-05-31T11:57:32.820Z,9524.00
2018-05-31T11:58:32.862Z,9820.00
2018-05-31T11:59:32.899Z,10248.00
2018-05-31T12:00:32.971Z,10644.00
2018-05-31T12:01:32.996Z,10968.00
2018-05-31T12:02:33.075Z,11168.00
2018-05-31T12:03:33.093Z,11372.00
2018-05-31T12:04:33.236Z,11988.00
2018-05-31T12:05:33.180Z,12584.00
2018-05-31T12:06:33.288Z,12760.00
2018-05-31T12:07:33.275Z,12672.00
2018-05-31T12:08:33.323Z,12268.00
2018-05-31T12:09:33.378Z,11812.00
2018-05-31T12:10:33.425Z,11684.00
2018-05-31T12:11:33.471Z,11932.00
2018-05-31T12:12:33.513Z,12012.00
2018-05-31T12:13:33.573Z,12064.00
2018-05-31T12:14:33.607Z,12520.00
2018-05-31T12:15:33.654Z,13024.00
2018-05-31T12:16:33.711Z,13256.00
2018-05-31T12:17:33.769Z,13472.00
2018-05-31T12:18:33.931Z,13692.00
2018-05-31T12:19:33.846Z,13820.00
2018-05-31T12:20:33.894Z,13560.00
2018-05-31T12:21:33.940Z,13268.00